createdAt,value
2022-10-24T00:14:54.937Z,96005.06
2022-10-24T00:17:22.728Z,95974.16
2022-10-24T00:19:50.447Z,95994.56
2022-10-24T00:22:18.170Z,96031.53
2022-10-24T00:24:45.866Z,96031.66
2022-10-24T00:27:14.202Z,96048.09
2022-10-24T00:29:41.978Z,96032.47
2022-10-24T00:32:11.166Z,96038.91
2022-10-24T00:34:39.818Z,96031.41
2022-10-24T00:37:07.921Z,96103.53
2022-10-24T00:39:35.732Z,96111.50
2022-10-24T00:42:04.147Z,96107.63
2022-10-24T00:44:40.746Z,96078.66
2022-10-24T00:47:12.232Z,96039.28
2022-10-24T00:49:47.214Z,96071.16
2022-10-24T00:52:18.054Z,95997.81
2022-10-24T00:54:47.914Z,95957.91
2022-10-24T00:57:21.218Z,96032.03
2022-10-24T00:59:54.143Z,96052.25
2022-10-24T01:02:23.647Z,96032.22
2022-10-24T01:04:54.101Z,96005.91
2022-10-24T01:07:36.814Z,95955.50
2022-10-24T01:10:29.058Z,96034.31
2022-10-24T01:13:08.238Z,96004.72
2022-10-24T01:15:43.531Z,95966.47
2022-10-24T01:18:18.877Z,96004.59
2022-10-24T01:21:03.463Z,95966.75
2022-10-24T01:24:03.668Z,96000.03
2022-10-24T01:27:09.503Z,95982.84
2022-10-24T01:30:03.828Z,95960.00
2022-10-24T01:32:38.912Z,95876.03
2022-10-24T01:35:18.444Z,95941.72
2022-10-24T01:37:52.455Z,95819.13
2022-10-24T01:40:24.851Z,95950.09
2022-10-24T01:42:54.843Z,95832.81
2022-10-24T01:45:31.129Z,95941.09
2022-10-24T01:48:02.923Z,95942.81
2022-10-24T01:50:32.657Z,95939.66
2022-10-24T01:53:01.464Z,95935.41
2022-10-24T01:55:31.135Z,95932.69
2022-10-24T01:57:58.865Z,95962.28
2022-10-24T02:00:28.009Z,95851.41
2022-10-24T02:03:01.874Z,95926.72
2022-10-24T02:05:34.158Z,95800.66
2022-10-24T02:08:06.748Z,95859.25
2022-10-24T02:10:39.664Z,95870.50
2022-10-24T02:13:13.140Z,95849.56
2022-10-24T02:15:47.745Z,95736.25
2022-10-24T02:18:16.639Z,95754.38
2022-10-24T02:20:52.048Z,95802.41
2022-10-24T02:23:25.046Z,95789.75
2022-10-24T02:25:58.503Z,95807.28
2022-10-24T02:28:32.211Z,95839.66
2022-10-24T02:31:07.653Z,95832.00
2022-10-24T02:33:37.321Z,95850.25
2022-10-24T02:36:07.230Z,95739.50
2022-10-24T02:38:38.096Z,95822.47
2022-10-24T02:41:09.296Z,95769.56
2022-10-24T02:43:38.356Z,95784.56
2022-10-24T02:46:10.116Z,95845.09
2022-10-24T02:48:44.436Z,95836.25
2022-10-24T02:51:14.297Z,95812.44
2022-10-24T02:53:42.020Z,95789.72
2022-10-24T02:56:09.716Z,95808.19
2022-10-24T02:58:37.416Z,95792.16
2022-10-24T03:01:05.417Z,95741.28
2022-10-24T03:03:34.568Z,95845.06
2022-10-24T03:06:02.276Z,95831.91
2022-10-24T03:08:29.965Z,95806.91
2022-10-24T03:10:57.857Z,95714.13
2022-10-24T03:13:25.573Z,95800.66
2022-10-24T03:15:53.341Z,95801.28
2022-10-24T03:18:21.320Z,95829.75
2022-10-24T03:20:50.536Z,95736.72
2022-10-24T03:23:19.348Z,95668.19
2022-10-24T03:25:47.146Z,95729.09
2022-10-24T03:28:15.031Z,95743.06
2022-10-24T03:30:42.804Z,95697.44
2022-10-24T03:33:10.528Z,95854.75
2022-10-24T03:35:38.511Z,95810.31
2022-10-24T03:38:08.158Z,95795.78
2022-10-24T03:40:36.031Z,95777.59
2022-10-24T03:43:04.394Z,95684.44
2022-10-24T03:45:32.135Z,95853.88
2022-10-24T03:47:59.791Z,95835.41
2022-10-24T03:50:27.576Z,95851.06
2022-10-24T03:52:55.309Z,95732.66
2022-10-24T03:55:24.615Z,95772.69
2022-10-24T03:57:52.301Z,95875.78
2022-10-24T04:00:20.203Z,95764.41
2022-10-24T04:02:50.589Z,95865.84
2022-10-24T04:05:18.878Z,95890.72
2022-10-24T04:07:47.043Z,95866.00
2022-10-24T04:10:14.905Z,95876.94
2022-10-24T04:12:43.957Z,95790.75
2022-10-24T04:15:12.279Z,95873.59
2022-10-24T04:17:40.118Z,95877.06
2022-10-24T04:20:08.739Z,95850.69
2022-10-24T04:22:36.423Z,95894.97
2022-10-24T04:25:04.463Z,95910.28
2022-10-24T04:27:32.217Z,95847.13
2022-10-24T04:30:01.282Z,95808.16
2022-10-24T04:32:29.001Z,95893.19
2022-10-24T04:34:56.661Z,95808.09
2022-10-24T04:37:24.387Z,95840.13
2022-10-24T04:39:53.708Z,95892.56
2022-10-24T04:42:21.839Z,95908.47
2022-10-24T04:44:49.685Z,95871.44
2022-10-24T04:49:47.826Z,95780.97
2022-10-24T04:52:15.543Z,95767.50
2022-10-24T04:54:43.205Z,95876.31
2022-10-24T04:57:10.943Z,95899.06
2022-10-24T04:59:38.658Z,95795.56
2022-10-24T05:02:06.491Z,95861.28
2022-10-24T05:04:35.547Z,95759.84
2022-10-24T05:07:03.282Z,95878.06
2022-10-24T05:09:30.990Z,95822.78
2022-10-24T05:11:59.675Z,95879.97
2022-10-24T05:14:27.373Z,95820.16
2022-10-24T05:16:55.080Z,95890.47
2022-10-24T05:19:22.822Z,95834.94
2022-10-24T05:21:51.962Z,95769.28
2022-10-24T05:24:20.759Z,95886.34
2022-10-24T05:26:48.502Z,95892.94
2022-10-24T05:29:16.174Z,95900.31
2022-10-24T05:31:43.879Z,95823.84
2022-10-24T05:34:11.633Z,95821.16
2022-10-24T05:36:39.445Z,95782.78
2022-10-24T05:39:08.841Z,95860.47
2022-10-24T05:41:36.673Z,95833.31
2022-10-24T05:44:20.856Z,95919.94
2022-10-24T05:46:52.856Z,95866.66
2022-10-24T05:49:21.154Z,95846.16
2022-10-24T05:51:48.919Z,95925.56
2022-10-24T05:54:18.058Z,95802.19
2022-10-24T05:56:45.766Z,95793.97
2022-10-24T05:59:13.635Z,95863.69
2022-10-24T06:01:42.419Z,95950.09
2022-10-24T06:04:13.007Z,95903.94
2022-10-24T06:06:42.507Z,95922.47
2022-10-24T06:09:10.271Z,95850.69
2022-10-24T06:11:39.470Z,95821.34
2022-10-24T06:14:07.233Z,95911.75
2022-10-24T06:16:34.979Z,95878.88
2022-10-24T06:19:02.745Z,95971.13
2022-10-24T06:21:30.518Z,95953.91
2022-10-24T06:23:58.830Z,95848.53
2022-10-24T06:26:26.728Z,95837.16
2022-10-24T06:28:56.245Z,95947.06
2022-10-24T06:31:25.718Z,95941.09
2022-10-24T06:33:55.614Z,95941.88
2022-10-24T06:36:26.799Z,95943.59
2022-10-24T06:38:57.543Z,95865.81
2022-10-24T06:41:25.475Z,95901.88
2022-10-24T06:43:53.856Z,95939.06
2022-10-24T06:46:24.214Z,95752.19
2022-10-24T06:48:55.167Z,95768.00
2022-10-24T06:51:23.402Z,95918.31
2022-10-24T06:53:51.172Z,95821.81
2022-10-24T06:56:18.994Z,95914.75
2022-10-24T06:58:46.851Z,95896.25
2022-10-24T07:01:16.886Z,95906.53
2022-10-24T07:03:46.764Z,95939.56
2022-10-24T07:06:18.214Z,95929.66
2022-10-24T07:08:46.473Z,95810.78
2022-10-24T07:11:15.187Z,95931.47
2022-10-24T07:13:43.005Z,95941.25
2022-10-24T07:16:10.986Z,95936.50
2022-10-24T07:18:39.115Z,95833.22
2022-10-24T07:21:10.721Z,95879.25
2022-10-24T07:23:38.464Z,95868.41
2022-10-24T07:26:08.649Z,95816.66
2022-10-24T07:28:37.902Z,95920.94
2022-10-24T07:31:06.315Z,95965.66
2022-10-24T07:33:34.488Z,95823.47
2022-10-24T07:36:02.297Z,95850.09
2022-10-24T07:38:31.396Z,95951.06
2022-10-24T07:40:59.265Z,95858.03
2022-10-24T07:43:27.044Z,95884.13
2022-10-24T07:45:54.825Z,95868.03
2022-10-24T07:48:22.621Z,95949.28
2022-10-24T07:50:50.652Z,95849.53
2022-10-24T07:53:18.375Z,95908.81
2022-10-24T07:55:47.539Z,95898.59
2022-10-24T07:58:15.863Z,95930.06
2022-10-24T08:00:45.439Z,95877.59
2022-10-24T08:03:13.920Z,95967.06
2022-10-24T08:05:42.529Z,95796.63
2022-10-24T08:08:35.946Z,95918.44
2022-10-24T08:13:27.293Z,95963.69
2022-10-24T08:15:56.395Z,95964.84
2022-10-24T08:18:24.163Z,95874.72
2022-10-24T08:20:58.954Z,95856.03
2022-10-24T08:23:26.793Z,95925.84
2022-10-24T08:25:54.655Z,95972.50
2022-10-24T08:28:24.532Z,95967.66
2022-10-24T08:30:59.685Z,95961.75
2022-10-24T08:33:28.271Z,95964.09
2022-10-24T08:35:59.939Z,95963.50
2022-10-24T08:38:28.217Z,95944.03
2022-10-24T08:40:56.398Z,95943.75
2022-10-24T08:43:25.998Z,95951.22
2022-10-24T08:46:04.821Z,95972.13
2022-10-24T08:48:38.047Z,95976.69
2022-10-24T08:51:15.709Z,95918.53
2022-10-24T08:53:43.493Z,95953.19
2022-10-24T08:56:12.827Z,95923.38
2022-10-24T08:58:45.615Z,95914.59
2022-10-24T09:01:22.653Z,95985.31
2022-10-24T09:04:07.205Z,95987.50
2022-10-24T09:06:35.021Z,95986.22
2022-10-24T09:09:05.794Z,95993.59
2022-10-24T09:11:46.345Z,95980.75
2022-10-24T09:14:18.183Z,95978.75
2022-10-24T09:16:49.626Z,95993.47
2022-10-24T09:19:20.652Z,95894.03
2022-10-24T09:21:49.681Z,95990.88
2022-10-24T09:24:30.573Z,95864.91
2022-10-24T09:27:00.404Z,95985.97
2022-10-24T09:29:32.551Z,95891.09
2022-10-24T09:32:00.669Z,95809.91
2022-10-24T09:34:28.653Z,95861.63
2022-10-24T09:36:56.485Z,95976.88
2022-10-24T09:39:28.129Z,95968.84
2022-10-24T09:41:56.844Z,96007.03
2022-10-24T09:44:35.608Z,95839.66
2022-10-24T09:47:06.157Z,95930.41
2022-10-24T09:49:37.569Z,95879.06
2022-10-24T09:52:10.473Z,95962.63
2022-10-24T09:54:38.245Z,95996.34
2022-10-24T09:57:08.729Z,95917.19
2022-10-24T09:59:44.225Z,95989.47
2022-10-24T10:02:24.378Z,96004.47
2022-10-24T10:05:19.291Z,96006.16
2022-10-24T10:07:49.910Z,96015.47
2022-10-24T10:10:30.674Z,95968.38
2022-10-24T10:13:06.518Z,96017.25
2022-10-24T10:15:39.096Z,95964.53
2022-10-24T10:18:23.312Z,95995.53
2022-10-24T10:21:01.008Z,95956.31
2022-10-24T10:23:32.447Z,96003.59
2022-10-24T10:26:15.899Z,95961.16
2022-10-24T10:28:48.366Z,96014.72
2022-10-24T10:31:20.965Z,95873.06
2022-10-24T10:34:02.129Z,96019.84
2022-10-24T10:36:33.703Z,95998.06
2022-10-24T10:39:17.214Z,95943.50
2022-10-24T10:41:50.591Z,95945.69
2022-10-24T10:44:32.053Z,95873.50
2022-10-24T10:47:11.317Z,95935.78
2022-10-24T10:49:40.816Z,95995.66
2022-10-24T10:52:14.383Z,95997.66
2022-10-24T10:55:02.589Z,95950.03
2022-10-24T10:57:38.183Z,95880.56
2022-10-24T11:00:12.413Z,96028.72
2022-10-24T11:02:59.463Z,96040.72
2022-10-24T11:05:41.672Z,96033.84
2022-10-24T11:08:23.637Z,96000.84
2022-10-24T11:10:55.694Z,96022.50
2022-10-24T11:13:32.517Z,96032.09
2022-10-24T11:16:05.756Z,96027.63
2022-10-24T11:18:38.429Z,96024.50
2022-10-24T11:21:08.543Z,95986.56
2022-10-24T11:23:40.232Z,95981.06
2022-10-24T11:26:11.851Z,96054.97
2022-10-24T11:28:47.182Z,95948.63
2022-10-24T11:31:22.760Z,96024.63
2022-10-24T11:34:01.451Z,96002.59
2022-10-24T11:36:36.068Z,96030.91
2022-10-24T11:39:08.952Z,96050.81
